createdAt,value
2022-10-09T00:02:31.036Z,70.60
2022-10-09T00:05:06.555Z,70.40
2022-10-09T00:07:41.849Z,70.30
2022-10-09T00:10:17.019Z,70.30
2022-10-09T00:12:52.040Z,70.30
2022-10-09T00:15:26.950Z,70.50
2022-10-09T00:18:01.824Z,70.70
2022-10-09T00:20:43.577Z,70.80
2022-10-09T00:23:18.488Z,71.10
2022-10-09T00:26:00.475Z,71.10
2022-10-09T00:28:38.449Z,71.60
2022-10-09T00:31:14.488Z,72.10
2022-10-09T00:33:49.709Z,72.00
2022-10-09T00:36:26.896Z,71.80
2022-10-09T00:39:01.797Z,71.70
2022-10-09T00:41:36.752Z,72.00
2022-10-09T00:44:57.179Z,71.70
2022-10-09T00:48:00.353Z,71.90
2022-10-09T00:50:55.309Z,71.60
2022-10-09T00:53:31.118Z,71.50
2022-10-09T00:56:06.333Z,71.30
2022-10-09T00:58:41.301Z,71.80
2022-10-09T01:01:16.260Z,71.30
2022-10-09T01:03:52.013Z,71.50
2022-10-09T01:06:57.376Z,71.80
2022-10-09T01:09:59.541Z,71.80
2022-10-09T01:12:52.830Z,71.90
2022-10-09T01:15:40.947Z,72.00
2022-10-09T01:18:48.956Z,71.90
2022-10-09T01:21:39.533Z,71.70
2022-10-09T01:24:39.212Z,71.50
2022-10-09T01:27:25.559Z,71.40
2022-10-09T01:30:08.063Z,71.40
2022-10-09T01:32:49.257Z,71.50
2022-10-09T01:35:26.117Z,71.90
2022-10-09T01:38:02.689Z,72.10
2022-10-09T01:40:38.374Z,72.20
2022-10-09T01:43:13.272Z,71.90
2022-10-09T01:45:49.217Z,72.00
2022-10-09T01:48:25.476Z,72.20
2022-10-09T01:51:04.588Z,72.10
2022-10-09T01:53:40.517Z,72.10
2022-10-09T01:56:21.250Z,71.80
2022-10-09T01:58:59.843Z,71.70
2022-10-09T02:01:37.349Z,71.50
2022-10-09T02:04:15.165Z,71.40
2022-10-09T02:06:50.595Z,71.30
2022-10-09T02:09:25.983Z,71.40
2022-10-09T02:12:08.280Z,71.30
2022-10-09T02:14:43.560Z,71.20
2022-10-09T02:17:23.994Z,71.40
2022-10-09T02:20:23.060Z,71.80
2022-10-09T02:23:01.383Z,71.80
2022-10-09T02:25:36.502Z,72.20
2022-10-09T02:28:11.803Z,72.30
2022-10-09T02:31:01.651Z,72.40
2022-10-09T02:33:37.265Z,72.30
2022-10-09T02:36:13.286Z,72.10
2022-10-09T02:38:48.289Z,71.90
2022-10-09T02:41:24.798Z,72.60
2022-10-09T02:43:59.776Z,72.90
2022-10-09T02:46:35.443Z,72.80
2022-10-09T02:49:10.561Z,72.60
2022-10-09T02:51:45.529Z,72.60
2022-10-09T02:54:20.787Z,72.40
2022-10-09T02:56:55.761Z,72.30
2022-10-09T02:59:32.113Z,72.20
2022-10-09T03:02:07.349Z,72.00
2022-10-09T03:04:42.306Z,72.10
2022-10-09T03:07:18.228Z,72.00
2022-10-09T03:09:54.244Z,72.00
2022-10-09T03:12:29.147Z,72.10
2022-10-09T03:15:04.550Z,72.00
2022-10-09T03:17:39.910Z,72.20
2022-10-09T03:20:15.257Z,72.20
2022-10-09T03:22:50.468Z,72.10
2022-10-09T03:25:25.938Z,72.10
2022-10-09T03:28:00.852Z,72.10
2022-10-09T03:30:35.749Z,71.80
2022-10-09T03:33:10.725Z,71.80
2022-10-09T03:35:49.987Z,71.70
2022-10-09T03:38:25.270Z,71.50
2022-10-09T03:41:07.403Z,71.50
2022-10-09T03:43:42.733Z,71.60
2022-10-09T03:46:17.923Z,71.60
2022-10-09T03:48:53.389Z,71.80
2022-10-09T03:51:28.409Z,71.70
2022-10-09T03:54:03.349Z,71.60
2022-10-09T03:56:38.490Z,71.70
2022-10-09T03:59:13.453Z,71.60
2022-10-09T04:01:48.357Z,71.70
2022-10-09T04:04:23.319Z,71.60
2022-10-09T04:06:58.304Z,71.30
2022-10-09T04:09:33.220Z,71.30
2022-10-09T04:12:08.208Z,71.20
2022-10-09T04:14:43.183Z,71.20
2022-10-09T04:17:18.139Z,71.10
2022-10-09T04:19:53.386Z,71.00
2022-10-09T04:22:28.454Z,70.80
2022-10-09T04:25:03.657Z,70.90
2022-10-09T04:27:38.590Z,70.70
2022-10-09T04:30:13.670Z,70.60
2022-10-09T04:32:48.888Z,70.50
2022-10-09T04:35:24.034Z,70.50
2022-10-09T04:37:59.423Z,70.30
2022-10-09T04:40:34.406Z,70.40
2022-10-09T04:43:09.395Z,70.50
2022-10-09T04:45:44.511Z,70.50
2022-10-09T04:48:19.840Z,70.40
2022-10-09T04:50:54.802Z,70.40
2022-10-09T04:53:29.754Z,70.70
2022-10-09T04:56:08.281Z,70.90
2022-10-09T04:58:43.637Z,70.90
2022-10-09T05:01:28.721Z,70.90
2022-10-09T05:04:03.931Z,70.90
2022-10-09T05:06:39.069Z,70.90
2022-10-09T05:09:13.988Z,71.00
2022-10-09T05:11:48.989Z,71.10
2022-10-09T05:14:23.888Z,71.10
2022-10-09T05:17:13.525Z,71.10
2022-10-09T05:19:49.279Z,70.80
2022-10-09T05:22:24.212Z,70.80
2022-10-09T05:25:00.396Z,70.80
2022-10-09T05:27:35.402Z,70.70
2022-10-09T05:30:11.178Z,70.70
2022-10-09T05:32:46.245Z,70.60
2022-10-09T05:35:21.362Z,70.80
2022-10-09T05:37:56.235Z,70.70
2022-10-09T05:40:31.538Z,70.60
2022-10-09T05:43:06.448Z,70.40
2022-10-09T05:45:41.459Z,70.40
2022-10-09T05:48:16.414Z,70.40
2022-10-09T05:50:51.306Z,70.50
2022-10-09T05:53:26.274Z,70.70
2022-10-09T05:56:22.538Z,70.80
2022-10-09T05:59:04.706Z,71.00
2022-10-09T06:01:42.929Z,70.90
2022-10-09T06:04:21.397Z,71.10
2022-10-09T06:06:56.371Z,71.40
2022-10-09T06:09:31.282Z,71.80
2022-10-09T06:12:06.341Z,71.80
2022-10-09T06:14:41.648Z,71.80
2022-10-09T06:17:16.499Z,71.80
2022-10-09T06:19:51.437Z,71.70
2022-10-09T06:22:26.791Z,71.70
2022-10-09T06:25:02.526Z,72.10
2022-10-09T06:27:37.471Z,72.40
2022-10-09T06:30:12.708Z,72.50
2022-10-09T06:32:47.925Z,72.50
2022-10-09T06:35:23.210Z,72.30
2022-10-09T06:37:58.159Z,72.40
2022-10-09T06:40:39.151Z,72.40
2022-10-09T06:43:14.158Z,72.60
2022-10-09T06:45:49.259Z,72.60
2022-10-09T06:48:24.316Z,72.90
2022-10-09T06:51:12.115Z,72.60
2022-10-09T06:53:53.857Z,72.60
2022-10-09T06:56:31.591Z,72.50
2022-10-09T06:59:08.127Z,72.80
2022-10-09T07:01:43.125Z,73.70
2022-10-09T07:04:18.710Z,74.00
2022-10-09T07:06:53.834Z,73.90
2022-10-09T07:09:28.756Z,73.80
2022-10-09T07:12:03.782Z,73.60
2022-10-09T07:14:38.698Z,73.40
2022-10-09T07:17:13.689Z,73.10
2022-10-09T07:19:49.353Z,73.60
2022-10-09T07:22:26.972Z,73.90
2022-10-09T07:25:02.444Z,74.60
2022-10-09T07:27:37.415Z,75.50
2022-10-09T07:30:12.627Z,76.00
2022-10-09T07:32:47.906Z,76.10
2022-10-09T07:35:23.110Z,76.20
2022-10-09T07:37:58.049Z,76.40
2022-10-09T07:40:36.566Z,76.50
2022-10-09T07:43:11.568Z,77.60
2022-10-09T07:45:47.062Z,78.10
2022-10-09T07:48:22.059Z,78.50
2022-10-09T07:50:57.091Z,78.60
2022-10-09T07:53:35.784Z,78.60
2022-10-09T07:56:16.485Z,78.80
2022-10-09T07:58:54.000Z,78.50
2022-10-09T08:01:30.579Z,77.80
2022-10-09T08:04:06.158Z,77.30
2022-10-09T08:06:41.178Z,77.40
2022-10-09T08:09:17.772Z,77.20
2022-10-09T08:11:52.794Z,77.00
2022-10-09T08:14:27.737Z,76.80
2022-10-09T08:17:02.750Z,77.30
2022-10-09T08:19:37.808Z,76.70
2022-10-09T08:22:12.849Z,76.70
2022-10-09T08:24:47.752Z,76.70
2022-10-09T08:27:22.751Z,76.50
2022-10-09T08:29:57.694Z,75.10
2022-10-09T08:32:32.644Z,74.30
2022-10-09T08:35:08.156Z,73.70
2022-10-09T08:37:43.120Z,73.10
2022-10-09T08:40:58.273Z,72.10
2022-10-09T08:43:41.491Z,71.40
2022-10-09T08:46:29.476Z,70.50
2022-10-09T08:49:05.530Z,69.20
2022-10-09T08:51:40.419Z,68.60
2022-10-09T08:54:25.506Z,67.70
2022-10-09T08:57:06.315Z,66.70
2022-10-09T08:59:41.859Z,63.60
2022-10-09T09:02:25.533Z,63.00
2022-10-09T09:05:15.476Z,61.90
2022-10-09T09:07:56.278Z,60.00
2022-10-09T09:11:21.585Z,59.00
2022-10-09T09:14:23.259Z,58.30
2022-10-09T09:17:23.205Z,57.60
2022-10-09T09:20:25.594Z,55.90
2022-10-09T09:23:02.148Z,54.90
2022-10-09T09:25:41.400Z,53.90
2022-10-09T09:28:31.078Z,52.70
2022-10-09T09:31:31.485Z,51.50
2022-10-09T09:34:22.313Z,48.80
2022-10-09T09:37:00.797Z,47.20
2022-10-09T09:42:33.499Z,45.10
2022-10-09T09:45:20.709Z,43.80
2022-10-09T09:48:06.953Z,43.10
2022-10-09T09:50:50.420Z,41.50
2022-10-09T09:53:49.276Z,41.10
2022-10-09T09:57:06.856Z,40.40
2022-10-09T09:59:41.560Z,39.70
2022-10-09T10:02:25.190Z,38.70
2022-10-09T10:05:15.250Z,38.60
2022-10-09T10:07:51.494Z,38.20
2022-10-09T10:10:27.565Z,38.10
2022-10-09T10:13:02.525Z,37.30
2022-10-09T10:15:37.503Z,37.50
2022-10-09T10:18:17.105Z,36.80
2022-10-09T10:21:03.008Z,36.40
2022-10-09T10:23:43.929Z,36.00
2022-10-09T10:26:50.458Z,35.90
2022-10-09T10:29:35.781Z,35.40
2022-10-09T10:32:27.321Z,35.40
2022-10-09T10:35:14.696Z,34.60
2022-10-09T10:38:13.446Z,34.00
2022-10-09T10:40:57.022Z,33.40
2022-10-09T10:43:47.226Z,33.40
2022-10-09T10:46:32.376Z,33.50
2022-10-09T10:49:10.974Z,33.20
2022-10-09T10:52:16.835Z,33.30
2022-10-09T10:55:32.323Z,33.10
2022-10-09T10:58:26.831Z,33.00
2022-10-09T11:01:44.755Z,33.10
2022-10-09T11:04:51.760Z,32.20
2022-10-09T11:08:03.083Z,32.50
2022-10-09T11:10:46.826Z,32.60
2022-10-09T11:13:48.448Z,32.50
2022-10-09T11:17:01.670Z,32.30
2022-10-09T11:20:09.088Z,31.70
2022-10-09T11:23:25.719Z,31.60
2022-10-09T11:26:32.609Z,31.40
2022-10-09T11:29:18.445Z,31.40
2022-10-09T11:32:00.212Z,31.00
2022-10-09T11:35:03.094Z,31.00
2022-10-09T11:37:42.062Z,30.90
2022-10-09T11:40:46.581Z,30.90
2022-10-09T11:43:28.572Z,30.70
2022-10-09T11:46:50.244Z,30.00
2022-10-09T11:49:46.954Z,29.40
2022-10-09T11:53:02.941Z,29.90
2022-10-09T11:55:38.051Z,29.60
2022-10-09T11:58:19.789Z,29.50
2022-10-09T12:01:19.429Z,29.10
2022-10-09T12:04:37.359Z,28.90
2022-10-09T12:07:32.697Z,28.70
2022-10-09T12:10:29.204Z,28.00
2022-10-09T12:13:07.791Z,28.50
2022-10-09T12:15:57.081Z,28.10
2022-10-09T12:18:39.487Z,28.10
2022-10-09T12:21:26.014Z,28.40
2022-10-09T12:24:01.647Z,28.20
2022-10-09T12:26:36.770Z,28.00
2022-10-09T12:29:32.246Z,28.60
2022-10-09T12:32:26.064Z,27.90
2022-10-09T12:35:11.400Z,27.70
2022-10-09T12:37:46.389Z,27.40
2022-10-09T12:40:32.195Z,28.10
2022-10-09T12:43:08.130Z,28.10
2022-10-09T12:45:46.017Z,28.20
2022-10-09T12:48:25.811Z,27.80
2022-10-09T12:51:00.778Z,28.20
2022-10-09T12:53:48.320Z,27.50
2022-10-09T12:56:33.259Z,27.10
2022-10-09T12:59:11.320Z,27.00
2022-10-09T13:01:47.715Z,27.20
2022-10-09T13:04:32.863Z,27.20
2022-10-09T13:07:26.523Z,27.00
2022-10-09T13:10:16.474Z,27.10
2022-10-09T13:12:57.849Z,26.80
2022-10-09T13:15:36.796Z,26.80
2022-10-09T13:18:23.156Z,26.90
2022-10-09T13:21:32.798Z,26.70
2022-10-09T13:24:13.218Z,27.00
2022-10-09T13:26:48.200Z,27.00
2022-10-09T13:29:23.282Z,26.50
2022-10-09T13:31:58.713Z,25.80
2022-10-09T13:34:33.635Z,26.40
2022-10-09T13:37:15.541Z,26.10
2022-10-09T13:39:56.610Z,26.50
2022-10-09T13:42:38.819Z,26.90
2022-10-09T13:45:14.124Z,25.90
2022-10-09T13:47:49.667Z,25.90
2022-10-09T13:50:24.855Z,26.30
2022-10-09T13:53:00.250Z,26.40
2022-10-09T13:55:35.252Z,25.60
2022-10-09T13:58:10.273Z,25.40
2022-10-09T14:00:46.004Z,25.30
2022-10-09T14:03:21.972Z,25.70
2022-10-09T14:05:59.789Z,25.40
2022-10-09T14:08:34.834Z,26.10
2022-10-09T14:11:09.888Z,25.90
2022-10-09T14:13:44.893Z,25.90
2022-10-09T14:16:19.831Z,25.40
2022-10-09T14:19:01.162Z,26.50
2022-10-09T14:21:36.361Z,26.40
2022-10-09T14:24:11.271Z,26.30
2022-10-09T14:26:50.781Z,26.60
2022-10-09T14:29:26.579Z,26.70
2022-10-09T14:32:01.564Z,26.30
2022-10-09T14:34:36.812Z,26.40
2022-10-09T14:37:23.804Z,26.20
2022-10-09T14:40:06.992Z,25.90
2022-10-09T14:42:42.086Z,25.70
2022-10-09T14:45:17.108Z,26.10
2022-10-09T14:47:52.032Z,25.70
2022-10-09T14:50:27.192Z,25.90
2022-10-09T14:53:02.195Z,25.50
2022-10-09T14:55:37.177Z,25.70
2022-10-09T14:58:13.126Z,26.20
2022-10-09T15:00:48.069Z,26.80
2022-10-09T15:03:23.364Z,26.40
2022-10-09T15:06:01.038Z,26.60
2022-10-09T15:08:40.254Z,26.20
2022-10-09T15:11:15.162Z,26.70
2022-10-09T15:13:50.121Z,26.70
2022-10-09T15:16:25.130Z,26.60
2022-10-09T15:19:00.562Z,27.00
2022-10-09T15:21:36.684Z,26.50
2022-10-09T15:24:11.656Z,26.40
2022-10-09T15:26:46.594Z,26.80
2022-10-09T15:29:21.600Z,26.80
2022-10-09T15:31:56.619Z,26.70
2022-10-09T15:34:31.621Z,26.40
2022-10-09T15:37:06.623Z,26.80
2022-10-09T15:39:41.895Z,27.00
2022-10-09T15:42:16.832Z,26.90
2022-10-09T15:44:51.876Z,27.10
2022-10-09T15:47:49.476Z,27.00
2022-10-09T15:50:21.620Z,26.80
2022-10-09T15:52:57.553Z,27.20
2022-10-09T15:55:37.912Z,27.30
2022-10-09T15:58:14.873Z,27.50
2022-10-09T16:00:50.865Z,27.60
2022-10-09T16:03:25.907Z,28.00
2022-10-09T16:06:04.883Z,28.10
2022-10-09T16:08:41.153Z,28.50
2022-10-09T16:11:20.425Z,28.50
2022-10-09T16:13:59.219Z,28.80
2022-10-09T16:16:34.208Z,29.10
2022-10-09T16:19:09.135Z,29.20
2022-10-09T16:21:44.124Z,29.40
2022-10-09T16:24:20.227Z,29.70
2022-10-09T16:26:55.321Z,29.90
2022-10-09T16:29:30.466Z,30.00
2022-10-09T16:32:05.382Z,30.30
2022-10-09T16:34:40.849Z,30.60
2022-10-09T16:37:17.046Z,30.80
2022-10-09T16:39:52.040Z,31.10
2022-10-09T16:42:26.924Z,31.30
2022-10-09T16:45:02.148Z,31.50
2022-10-09T16:47:38.092Z,31.50
2022-10-09T16:50:13.122Z,31.70
2022-10-09T16:52:48.350Z,32.00
2022-10-09T16:55:23.564Z,32.20
2022-10-09T16:57:58.531Z,32.30
2022-10-09T17:00:33.582Z,32.50
2022-10-09T17:03:08.610Z,32.60
2022-10-09T17:05:43.929Z,32.80
2022-10-09T17:08:18.868Z,33.00
2022-10-09T17:10:53.856Z,33.10
2022-10-09T17:13:28.922Z,33.30
2022-10-09T17:16:24.949Z,33.30
2022-10-09T17:19:00.555Z,33.60
2022-10-09T17:21:36.143Z,33.80
2022-10-09T17:24:15.274Z,34.00
2022-10-09T17:26:50.309Z,34.10
2022-10-09T17:29:26.029Z,34.40
2022-10-09T17:32:00.999Z,34.50
2022-10-09T17:34:36.059Z,34.60
2022-10-09T17:37:11.345Z,34.80
2022-10-09T17:39:51.162Z,34.90
2022-10-09T17:42:27.063Z,35.00
2022-10-09T17:45:02.175Z,35.20
2022-10-09T17:47:38.064Z,35.30
2022-10-09T17:50:12.982Z,35.60
2022-10-09T17:52:48.267Z,35.70
2022-10-09T17:55:23.460Z,35.90
2022-10-09T17:57:59.100Z,36.00
2022-10-09T18:00:37.465Z,36.20
2022-10-09T18:03:13.360Z,36.20
2022-10-09T18:05:50.365Z,36.30
2022-10-09T18:08:26.621Z,36.50
2022-10-09T18:11:07.923Z,36.50
2022-10-09T18:13:44.742Z,36.70
2022-10-09T18:16:35.295Z,36.80
2022-10-09T18:19:14.573Z,36.90
2022-10-09T18:21:50.208Z,37.20
2022-10-09T18:24:25.150Z,37.30
2022-10-09T18:27:00.470Z,37.70
2022-10-09T18:29:36.671Z,37.90
2022-10-09T18:32:11.692Z,38.10
2022-10-09T18:34:46.975Z,38.20
2022-10-09T18:37:22.058Z,38.50
2022-10-09T18:39:57.070Z,38.60
2022-10-09T18:42:32.010Z,38.80
2022-10-09T18:45:10.525Z,38.90
2022-10-09T18:47:45.514Z,39.00
2022-10-09T18:50:20.849Z,39.10
2022-10-09T18:52:55.800Z,39.10
2022-10-09T18:55:30.743Z,39.30
2022-10-09T18:58:06.160Z,39.40
2022-10-09T19:00:41.551Z,39.60
2022-10-09T19:03:16.616Z,39.80
2022-10-09T19:05:51.607Z,40.00
2022-10-09T19:08:26.579Z,40.20
2022-10-09T19:11:01.953Z,40.40
2022-10-09T19:13:36.977Z,40.70
2022-10-09T19:16:12.002Z,40.90
2022-10-09T19:18:46.911Z,41.10
2022-10-09T19:21:22.213Z,41.40
2022-10-09T19:24:03.269Z,41.50
2022-10-09T19:26:39.362Z,41.50
2022-10-09T19:29:14.297Z,41.60
2022-10-09T19:31:49.226Z,41.70
2022-10-09T19:34:24.291Z,41.90
2022-10-09T19:36:59.443Z,42.00
2022-10-09T19:39:34.484Z,42.30
2022-10-09T19:42:09.581Z,42.60
2022-10-09T19:44:46.082Z,42.90
2022-10-09T19:47:21.944Z,42.90
2022-10-09T19:49:57.098Z,43.20
2022-10-09T19:52:32.066Z,43.30
2022-10-09T19:55:07.428Z,43.60
2022-10-09T19:57:42.510Z,43.90
2022-10-09T20:00:17.566Z,44.30
2022-10-09T20:02:52.966Z,44.40
2022-10-09T20:05:28.442Z,44.60
2022-10-09T20:08:03.481Z,44.80
2022-10-09T20:10:38.892Z,45.10
2022-10-09T20:13:14.203Z,45.30
2022-10-09T20:15:49.109Z,45.50
2022-10-09T20:18:24.019Z,45.90
2022-10-09T20:20:59.568Z,46.20
2022-10-09T20:23:34.694Z,46.20
2022-10-09T20:26:15.045Z,46.10
2022-10-09T20:28:50.477Z,46.00
2022-10-09T20:31:27.965Z,45.90
2022-10-09T20:34:03.320Z,45.80
2022-10-09T20:36:39.139Z,45.60
2022-10-09T20:39:15.854Z,45.50
2022-10-09T20:41:50.816Z,45.60
2022-10-09T20:44:25.785Z,45.60
2022-10-09T20:47:00.802Z,45.40
2022-10-09T20:49:35.757Z,45.60
2022-10-09T20:52:10.809Z,45.70
2022-10-09T20:54:45.803Z,45.50
2022-10-09T20:57:20.801Z,45.40
2022-10-09T20:59:56.042Z,45.20
2022-10-09T21:02:31.437Z,45.10
2022-10-09T21:05:08.186Z,45.10
2022-10-09T21:07:43.479Z,45.10
2022-10-09T21:10:19.554Z,45.20
2022-10-09T21:12:54.460Z,45.10
2022-10-09T21:15:29.353Z,44.90
2022-10-09T21:18:04.568Z,44.80
2022-10-09T21:20:45.741Z,44.70
2022-10-09T21:23:20.769Z,44.60
2022-10-09T21:25:55.747Z,44.40
2022-10-09T21:28:31.071Z,44.50
2022-10-09T21:31:17.442Z,44.50
2022-10-09T21:33:52.461Z,44.50
2022-10-09T21:37:08.819Z,44.60
2022-10-09T21:39:42.034Z,44.60
2022-10-09T21:42:16.978Z,44.70
2022-10-09T21:44:51.893Z,44.90
2022-10-09T21:47:26.850Z,44.90
2022-10-09T21:50:01.793Z,44.90
2022-10-09T21:52:36.806Z,45.10
2022-10-09T21:55:11.929Z,45.30
2022-10-09T21:57:47.212Z,45.90
2022-10-09T22:00:22.419Z,45.90
2022-10-09T22:02:57.408Z,45.80
2022-10-09T22:05:32.400Z,46.10
2022-10-09T22:08:07.326Z,46.10
2022-10-09T22:10:42.516Z,46.40
2022-10-09T22:13:19.820Z,46.30
2022-10-09T22:15:54.764Z,46.30
2022-10-09T22:18:29.734Z,46.40
2022-10-09T22:21:11.887Z,46.60
2022-10-09T22:23:46.984Z,46.70
2022-10-09T22:26:23.240Z,46.70
2022-10-09T22:28:58.256Z,46.90
2022-10-09T22:31:34.241Z,46.90
2022-10-09T22:34:10.209Z,47.20
2022-10-09T22:36:45.525Z,47.30
2022-10-09T22:39:20.447Z,47.50
2022-10-09T22:41:55.380Z,48.10
2022-10-09T22:44:30.367Z,48.30
2022-10-09T22:47:05.342Z,48.80
2022-10-09T22:49:40.403Z,49.10
2022-10-09T22:52:15.257Z,49.50
2022-10-09T22:54:50.156Z,49.80
2022-10-09T22:57:25.155Z,50.20
2022-10-09T23:00:00.131Z,50.70
2022-10-09T23:02:35.146Z,51.00
2022-10-09T23:05:10.180Z,51.40
2022-10-09T23:07:45.091Z,51.80
2022-10-09T23:10:20.563Z,52.10
2022-10-09T23:12:55.471Z,52.60
2022-10-09T23:15:30.669Z,53.30
2022-10-09T23:18:05.841Z,53.50
2022-10-09T23:20:40.728Z,53.70
2022-10-09T23:23:15.576Z,54.00
2022-10-09T23:25:50.436Z,54.20
2022-10-09T23:28:27.662Z,54.50
2022-10-09T23:31:06.038Z,54.70
2022-10-09T23:33:44.034Z,55.40
2022-10-09T23:36:22.546Z,55.30
2022-10-09T23:38:58.628Z,55.50
2022-10-09T23:41:34.963Z,55.90
2022-10-09T23:44:09.883Z,56.10
2022-10-09T23:46:44.777Z,56.50
2022-10-09T23:49:19.649Z,56.70
2022-10-09T23:51:54.595Z,56.80
2022-10-09T23:54:29.536Z,56.90
2022-10-09T23:57:04.557Z,57.00
2022-10-09T23:59:39.508Z,57.20
